Terminal Aerodrome Forecast
Issued by NWS

Home | Current Version | Previous Version | Graphics & Text | Print | Product List | Glossary On
Versions: 1 2 3 4 5 6 7 8 9 10 11 12 13 14 15 16 17 18
652
FTUS43 KBIS 212333
TAFDIK
TAF
KDIK 212333Z 2200/2224 34009KT P6SM SKC
     FM220300 VRB05KT P6SM SCT120
     FM221200 29014KT P6SM FEW110 SCT200
     FM221600 30024G32KT P6SM FEW060 FEW200=

USA.gov is the U.S. government's official web portal to all federal, state and local government web resources and services.